Time;durP1;ratioP1;P1;durP2;ratioP2;P2;SDS_P1;SDS_P2;PMS_P1;PMS_P2;Temp;Humidity;BMP_temperature;BMP_pressure;BME280_temperature;BME280_humidity;BME280_pressure;Samples;Min_cycle;Max_cycle;Signal;HPM_P1;HPM_P2
2021/09/17 00:01:27;;;;;;;10.60;6.50;;;;;;;22.51;46.93;100631.69;4400882;32;20423;-67
2021/09/17 00:03:53;;;;;;;13.88;6.70;;;;;;;22.54;46.87;100624.91;4401849;32;20070;-67
2021/09/17 00:06:19;;;;;;;15.18;6.55;;;;;;;22.50;47.02;100627.25;4402672;32;20096;-67
2021/09/17 00:08:45;;;;;;;11.75;6.07;;;;;;;22.34;47.15;100628.03;4400007;32;20042;-67
2021/09/17 00:11:10;;;;;;;10.23;5.62;;;;;;;22.19;47.27;100621.78;4402751;32;20835;-67
2021/09/17 00:13:37;;;;;;;12.75;5.30;;;;;;;22.24;47.25;100616.03;4399117;32;20042;-68
2021/09/17 00:16:03;;;;;;;12.98;5.95;;;;;;;22.43;46.99;100613.44;4401740;32;20535;-67
2021/09/17 00:18:29;;;;;;;9.32;5.82;;;;;;;22.34;47.07;100614.50;4398452;32;20106;-67
2021/09/17 00:20:55;;;;;;;14.15;6.30;;;;;;;22.36;47.00;100611.09;4402078;32;20071;-67
2021/09/17 00:23:21;;;;;;;10.43;5.55;;;;;;;22.33;47.16;100610.03;4400706;32;20105;-67
2021/09/17 00:25:47;;;;;;;14.15;5.93;;;;;;;22.17;47.33;100607.97;4404930;32;20025;-67
2021/09/17 00:28:12;;;;;;;13.40;6.57;;;;;;;22.35;47.06;100601.72;4404613;32;20429;-67
2021/09/17 00:30:38;;;;;;;11.65;5.78;;;;;;;22.45;46.21;100600.13;4403279;32;20081;-68
2021/09/17 00:33:04;;;;;;;11.18;5.72;;;;;;;22.36;46.56;100605.38;4403238;32;20104;-69
2021/09/17 00:35:31;;;;;;;12.02;6.62;;;;;;;22.34;46.86;100591.56;4405050;32;20100;-68
2021/09/17 00:37:56;;;;;;;12.23;5.90;;;;;;;22.34;46.79;100594.41;4401302;32;20085;-68
2021/09/17 00:40:23;;;;;;;13.05;6.37;;;;;;;22.32;46.81;100593.34;4403504;32;20144;-67
2021/09/17 00:42:49;;;;;;;10.93;6.40;;;;;;;22.44;46.57;100594.91;4405054;32;20132;-67
2021/09/17 00:45:15;;;;;;;11.15;6.45;;;;;;;22.50;46.42;100593.63;4402417;32;20360;-67
2021/09/17 00:47:42;;;;;;;12.60;6.10;;;;;;;22.59;46.29;100590.50;4402459;32;20100;-67
2021/09/17 00:50:11;;;;;;;12.10;6.15;;;;;;;22.25;46.72;100582.44;4401846;32;20465;-67
2021/09/17 00:52:39;;;;;;;11.02;6.20;;;;;;;22.52;46.47;100578.78;4405144;32;20049;-67
2021/09/17 00:55:05;;;;;;;11.23;6.28;;;;;;;22.34;46.74;100580.09;4401721;32;20097;-68
2021/09/17 00:57:32;;;;;;;10.80;5.90;;;;;;;22.46;46.59;100575.09;4401998;32;20089;-69
2021/09/17 00:59:58;;;;;;;14.20;7.62;;;;;;;22.47;46.44;100570.91;4403497;32;20356;-68
2021/09/17 01:02:23;;;;;;;17.10;7.35;;;;;;;22.28;46.89;100572.78;4403613;32;20084;-67
2021/09/17 01:04:50;;;;;;;14.27;6.78;;;;;;;22.26;46.95;100566.78;4401341;32;20151;-67
2021/09/17 01:07:15;;;;;;;10.98;6.55;;;;;;;22.29;47.02;100562.87;4403232;32;20034;-67
2021/09/17 01:09:44;;;;;;;12.10;6.43;;;;;;;22.28;46.87;100559.25;4398541;32;20715;-67
2021/09/17 01:12:11;;;;;;;14.98;7.32;;;;;;;22.44;46.69;100560.50;4400353;32;20081;-67
2021/09/17 01:14:37;;;;;;;12.75;6.80;;;;;;;22.36;46.84;100565.22;4402294;32;20086;-67
2021/09/17 01:17:04;;;;;;;9.52;6.32;;;;;;;22.22;46.95;100564.19;4394244;32;20512;-67
2021/09/17 01:19:30;;;;;;;12.43;6.00;;;;;;;22.41;46.86;100559.47;4404159;32;20065;-67
2021/09/17 01:22:00;;;;;;;10.13;5.97;;;;;;;22.23;47.00;100553.50;4398432;32;20134;-67
2021/09/17 01:24:26;;;;;;;11.25;6.90;;;;;;;22.39;46.70;100561.28;4400289;32;20329;-67
2021/09/17 01:26:53;;;;;;;10.00;6.65;;;;;;;22.07;47.23;100551.44;4401314;32;20066;-69
2021/09/17 01:29:19;;;;;;;11.60;6.85;;;;;;;22.07;47.12;100555.09;4399117;32;20094;-67
2021/09/17 01:31:45;;;;;;;14.43;6.20;;;;;;;22.06;47.04;100542.06;4401676;32;20078;-67
2021/09/17 01:34:15;;;;;;;13.65;6.18;;;;;;;22.19;46.81;100547.25;4407697;32;20542;-67
2021/09/17 01:36:42;;;;;;;12.75;6.05;;;;;;;22.23;46.86;100550.62;4401171;32;20446;-69
2021/09/17 01:39:08;;;;;;;12.13;6.12;;;;;;;22.01;47.28;100537.12;4402988;32;20034;-68
2021/09/17 01:41:34;;;;;;;10.77;5.87;;;;;;;22.02;47.26;100540.75;4398931;32;20438;-68
2021/09/17 01:44:00;;;;;;;12.85;6.03;;;;;;;22.09;46.90;100532.41;4403216;32;20267;-68
2021/09/17 01:46:26;;;;;;;9.10;5.82;;;;;;;22.09;46.96;100529.53;4402116;32;20099;-68
2021/09/17 01:48:52;;;;;;;13.68;6.32;;;;;;;22.11;46.91;100526.16;4400962;32;20069;-68
2021/09/17 01:51:18;;;;;;;12.57;7.03;;;;;;;22.14;46.97;100533.69;4404913;32;20105;-68
2021/09/17 01:53:44;;;;;;;12.95;7.07;;;;;;;22.07;46.94;100529.31;4403576;32;20098;-68
2021/09/17 01:56:11;;;;;;;13.30;6.43;;;;;;;22.05;46.94;100526.16;4403080;32;20278;-68
2021/09/17 01:58:37;;;;;;;10.32;6.37;;;;;;;22.20;46.69;100528.75;4402558;32;20154;-68
2021/09/17 02:01:03;;;;;;;12.35;6.35;;;;;;;22.12;46.68;100522.00;4403795;32;20054;-68
2021/09/17 02:03:29;;;;;;;12.35;6.12;;;;;;;22.14;46.66;100516.50;4403574;32;20066;-68
2021/09/17 02:05:55;;;;;;;10.82;6.03;;;;;;;22.01;47.07;100514.19;4400492;32;20060;-68
2021/09/17 02:08:21;;;;;;;11.60;6.20;;;;;;;22.03;47.18;100513.69;4400857;32;20089;-68
2021/09/17 02:10:48;;;;;;;9.50;5.90;;;;;;;21.91;47.19;100509.25;4400072;32;20376;-68
2021/09/17 02:13:19;;;;;;;10.70;6.18;;;;;;;22.01;47.13;100508.47;4397447;32;20150;-68
2021/09/17 02:15:48;;;;;;;10.45;6.30;;;;;;;22.00;47.07;100509.00;4399993;32;20054;-68
2021/09/17 02:18:14;;;;;;;13.50;6.65;;;;;;;22.00;47.16;100514.72;4399902;32;20145;-68
2021/09/17 02:20:40;;;;;;;12.43;7.28;;;;;;;22.06;47.02;100510.53;4405694;32;20517;-68
2021/09/17 02:23:06;;;;;;;15.32;7.15;;;;;;;21.94;47.23;100509.00;4405275;32;20129;-68
2021/09/17 02:25:32;;;;;;;15.05;7.07;;;;;;;21.98;47.10;100512.38;4402296;32;20119;-68
2021/09/17 02:27:58;;;;;;;15.73;7.60;;;;;;;21.94;47.15;100511.06;4404166;32;20062;-68
2021/09/17 02:30:23;;;;;;;14.20;7.22;;;;;;;21.88;47.24;100507.44;4405352;32;20029;-68
2021/09/17 02:32:49;;;;;;;15.23;6.90;;;;;;;21.87;47.33;100503.03;4401159;32;20103;-68
2021/09/17 02:35:15;;;;;;;15.45;8.02;;;;;;;21.81;47.38;100496.50;4404784;32;20077;-68
2021/09/17 02:37:42;;;;;;;15.38;7.90;;;;;;;21.80;47.18;100495.72;4403461;32;20066;-68
2021/09/17 02:40:10;;;;;;;12.90;7.85;;;;;;;21.66;47.74;100497.53;4402022;32;20100;-68
2021/09/17 02:42:37;;;;;;;13.27;6.93;;;;;;;21.83;47.43;100494.69;4404388;32;20061;-68
2021/09/17 02:45:04;;;;;;;10.82;6.45;;;;;;;21.61;47.62;100486.88;4397115;32;20046;-68
2021/09/17 02:47:30;;;;;;;10.63;6.47;;;;;;;21.64;47.67;100485.78;4404787;32;20056;-68
2021/09/17 02:49:56;;;;;;;13.40;6.97;;;;;;;21.40;48.04;100484.75;4404374;32;20492;-68
2021/09/17 02:52:23;;;;;;;15.77;6.97;;;;;;;21.38;47.98;100482.41;4401989;32;20511;-68
2021/09/17 02:54:49;;;;;;;11.00;6.75;;;;;;;21.52;47.61;100477.75;4404030;32;20065;-68
2021/09/17 02:57:14;;;;;;;10.30;6.90;;;;;;;21.39;47.77;100475.38;4400766;32;20095;-68
2021/09/17 02:59:40;;;;;;;15.48;7.22;;;;;;;21.37;48.05;100475.13;4402744;32;20114;-68
2021/09/17 03:02:06;;;;;;;15.38;7.28;;;;;;;21.34;47.97;100469.66;4400622;32;20070;-68
2021/09/17 03:04:32;;;;;;;15.98;7.30;;;;;;;21.43;47.82;100466.53;4402843;32;20378;-68
2021/09/17 03:06:59;;;;;;;13.40;7.80;;;;;;;21.70;47.39;100460.78;4403905;32;20100;-68
2021/09/17 03:09:24;;;;;;;15.10;8.60;;;;;;;21.60;47.50;100456.66;4404637;32;20149;-68
2021/09/17 03:11:51;;;;;;;14.48;7.95;;;;;;;21.39;48.06;100461.06;4401154;32;20914;-68
2021/09/17 03:14:19;;;;;;;13.75;8.30;;;;;;;21.50;47.71;100448.84;4403612;32;20108;-68
2021/09/17 03:16:45;;;;;;;16.25;8.68;;;;;;;21.57;47.74;100449.09;4404049;32;20141;-68
2021/09/17 03:19:11;;;;;;;16.55;9.02;;;;;;;21.58;47.75;100449.88;4402707;32;20103;-68
2021/09/17 03:21:37;;;;;;;15.85;9.43;;;;;;;21.62;47.69;100450.41;4402651;32;20027;-68
2021/09/17 03:24:03;;;;;;;19.70;10.02;;;;;;;21.37;47.68;100449.38;4398846;32;20081;-68
2021/09/17 03:26:29;;;;;;;19.83;10.73;;;;;;;21.39;48.20;100452.47;4403263;32;20113;-68
2021/09/17 03:28:56;;;;;;;18.33;10.73;;;;;;;21.44;47.91;100453.78;4404015;32;20108;-68
2021/09/17 03:31:21;;;;;;;18.50;9.80;;;;;;;21.41;48.00;100444.16;4396656;32;20111;-68
2021/09/17 03:33:47;;;;;;;18.20;11.12;;;;;;;21.33;48.29;100448.84;4403059;32;20057;-68
2021/09/17 03:36:14;;;;;;;22.27;12.10;;;;;;;21.38;48.32;100448.06;4403811;32;20047;-68
2021/09/17 03:38:39;;;;;;;21.23;11.43;;;;;;;21.39;48.40;100443.13;4402221;32;20073;-68
2021/09/17 03:41:06;;;;;;;21.40;11.98;;;;;;;21.39;48.27;100446.75;4403926;32;20034;-68
2021/09/17 03:43:33;;;;;;;20.83;12.15;;;;;;;21.47;48.18;100432.69;4401055;32;20662;-68
2021/09/17 03:45:59;;;;;;;19.00;11.88;;;;;;;21.30;48.58;100434.78;4401824;32;20026;-68
2021/09/17 03:48:25;;;;;;;27.25;12.93;;;;;;;21.34;48.51;100443.91;4400885;32;20086;-68
2021/09/17 03:50:51;;;;;;;24.95;12.75;;;;;;;21.40;48.57;100436.09;4404512;32;20517;-68
2021/09/17 03:53:17;;;;;;;24.02;13.00;;;;;;;21.34;48.53;100436.09;4400720;32;20156;-68
2021/09/17 03:55:43;;;;;;;27.52;13.20;;;;;;;21.23;48.71;100418.16;4401283;32;20466;-68
2021/09/17 03:58:09;;;;;;;24.87;13.38;;;;;;;20.96;49.27;100424.63;4403319;32;20621;-68
2021/09/17 04:00:36;;;;;;;24.12;14.02;;;;;;;21.04;48.92;100422.78;4401204;32;20212;-68
2021/09/17 04:03:02;;;;;;;23.62;12.85;;;;;;;21.18;48.63;100419.72;4402119;32;20085;-68
2021/09/17 04:05:27;;;;;;;22.02;12.80;;;;;;;21.25;48.58;100412.66;4402021;32;20101;-68
2021/09/17 04:07:53;;;;;;;23.08;13.05;;;;;;;21.21;48.42;100417.88;4401715;32;20087;-68
2021/09/17 04:10:20;;;;;;;22.95;12.75;;;;;;;21.16;48.60;100413.72;4401258;32;20130;-68
2021/09/17 04:12:51;;;;;;;21.58;12.32;;;;;;;21.14;48.79;100409.81;4401330;32;20089;-68
2021/09/17 04:15:18;;;;;;;23.08;12.68;;;;;;;20.95;49.16;100414.44;4403492;32;20416;-68
2021/09/17 04:17:44;;;;;;;25.45;13.20;;;;;;;20.98;49.06;100419.94;4398670;32;20077;-68
2021/09/17 04:20:11;;;;;;;21.73;12.43;;;;;;;21.09;48.75;100402.00;4399878;32;20636;-68
2021/09/17 04:22:39;;;;;;;26.25;13.25;;;;;;;21.16;48.63;100405.12;4402587;32;20037;-66
2021/09/17 04:25:07;;;;;;;23.87;13.35;;;;;;;21.20;48.80;100410.59;4402766;32;20073;-68
2021/09/17 04:27:33;;;;;;;23.17;12.23;;;;;;;21.22;48.75;100408.78;4401350;32;20400;-68
2021/09/17 04:29:58;;;;;;;22.67;13.10;;;;;;;20.86;49.23;100420.41;4402520;32;20134;-68
2021/09/17 04:32:24;;;;;;;27.58;14.10;;;;;;;20.97;48.90;100423.31;4401134;32;20034;-68
2021/09/17 04:34:50;;;;;;;23.73;12.88;;;;;;;21.06;48.52;100414.47;4401522;32;20403;-68
2021/09/17 04:37:17;;;;;;;20.35;12.18;;;;;;;21.11;48.37;100417.34;4402530;32;20030;-68
2021/09/17 04:39:43;;;;;;;22.40;12.65;;;;;;;21.03;48.68;100421.25;4401681;32;20501;-68
2021/09/17 04:42:08;;;;;;;27.62;13.62;;;;;;;20.95;49.00;100409.53;4403283;32;20085;-68
2021/09/17 04:44:34;;;;;;;22.40;12.13;;;;;;;20.94;49.12;100410.00;4401235;32;20035;-68
2021/09/17 04:47:00;;;;;;;28.38;14.65;;;;;;;20.91;49.19;100408.97;4402801;32;20382;-67
2021/09/17 04:49:26;;;;;;;25.20;13.00;;;;;;;20.67;49.68;100399.28;4400325;32;20074;-67
2021/09/17 04:51:52;;;;;;;26.50;13.85;;;;;;;20.89;49.05;100408.72;4399613;32;20142;-67
2021/09/17 04:54:17;;;;;;;25.40;13.43;;;;;;;20.78;49.17;100417.28;4402224;32;20109;-67
2021/09/17 04:56:43;;;;;;;22.50;13.02;;;;;;;20.91;49.21;100405.31;4403175;32;20072;-67
2021/09/17 04:59:11;;;;;;;24.92;13.60;;;;;;;20.85;49.30;100401.69;4400343;32;20400;-67
2021/09/17 05:01:37;;;;;;;26.10;13.35;;;;;;;21.02;48.97;100388.22;4401733;32;20081;-67
2021/09/17 05:04:03;;;;;;;24.02;13.68;;;;;;;20.81;49.24;100395.44;4401509;32;20096;-67
2021/09/17 05:06:31;;;;;;;22.52;13.25;;;;;;;20.85;49.09;100396.75;4401097;32;21328;-67
2021/09/17 05:08:58;;;;;;;26.67;13.93;;;;;;;20.89;49.04;100402.22;4402414;32;20077;-67
2021/09/17 05:11:24;;;;;;;24.20;13.82;;;;;;;20.98;49.06;100397.03;4399026;32;20046;-67
2021/09/17 05:13:50;;;;;;;27.35;14.57;;;;;;;20.80;49.27;100394.66;4402420;32;20046;-67
2021/09/17 05:16:16;;;;;;;21.77;13.73;;;;;;;20.74;49.26;100387.38;4403066;32;20062;-67
2021/09/17 05:18:43;;;;;;;27.08;14.43;;;;;;;20.76;49.43;100387.62;4400123;32;20117;-67
2021/09/17 05:21:10;;;;;;;24.55;13.82;;;;;;;20.79;49.27;100384.50;4400244;32;20087;-67
2021/09/17 05:23:36;;;;;;;24.87;14.30;;;;;;;20.83;49.37;100381.41;4400992;32;20103;-67
2021/09/17 05:26:02;;;;;;;24.95;13.88;;;;;;;20.79;49.33;100387.38;4394762;32;20073;-67
2021/09/17 05:28:29;;;;;;;24.58;14.00;;;;;;;20.90;49.11;100386.63;4404404;32;20042;-67
2021/09/17 05:30:54;;;;;;;24.23;13.07;;;;;;;20.86;49.34;100394.69;4401435;32;20441;-67
2021/09/17 05:33:20;;;;;;;27.73;15.35;;;;;;;20.84;49.21;100382.97;4401695;32;20030;-67
2021/09/17 05:35:46;;;;;;;24.10;14.10;;;;;;;20.76;49.51;100388.41;4400812;32;20498;-67
2021/09/17 05:38:12;;;;;;;26.42;13.40;;;;;;;20.78;49.29;100394.41;4401710;32;20085;-67
2021/09/17 05:40:38;;;;;;;24.67;13.23;;;;;;;20.80;49.32;100397.50;4400442;32;20138;-67
2021/09/17 05:43:04;;;;;;;26.42;14.27;;;;;;;20.87;49.09;100393.37;4402094;32;20097;-67
2021/09/17 05:45:30;;;;;;;25.45;12.75;;;;;;;20.90;48.97;100395.19;4402029;32;20064;-67
2021/09/17 05:47:56;;;;;;;26.60;14.18;;;;;;;20.79;49.28;100395.94;4403693;32;20500;-68
2021/09/17 05:50:22;;;;;;;31.45;13.80;;;;;;;20.78;49.14;100399.34;4401586;32;20061;-67
2021/09/17 05:52:48;;;;;;;26.05;13.60;;;;;;;20.85;49.06;100402.47;4401518;32;20065;-67
2021/09/17 05:55:13;;;;;;;28.35;12.93;;;;;;;20.87;48.83;100401.94;4402743;32;20415;-67
2021/09/17 05:57:39;;;;;;;28.30;12.90;;;;;;;20.94;48.60;100407.16;4404337;32;20466;-67
2021/09/17 06:00:07;;;;;;;29.33;13.15;;;;;;;20.99;48.45;100404.31;4403816;32;20091;-67
2021/09/17 06:02:33;;;;;;;22.45;13.48;;;;;;;21.04;48.27;100405.63;4403854;32;20038;-67
2021/09/17 06:04:59;;;;;;;29.75;13.27;;;;;;;20.98;48.39;100411.34;4401649;32;20069;-67
2021/09/17 06:07:24;;;;;;;22.67;13.43;;;;;;;20.97;48.52;100411.88;4403747;32;20097;-67
2021/09/17 06:09:50;;;;;;;31.65;15.68;;;;;;;21.06;48.27;100415.28;4402093;32;20105;-67
2021/09/17 06:12:16;;;;;;;35.03;18.45;;;;;;;21.02;48.38;100414.72;4405211;32;20453;-67
2021/09/17 06:14:42;;;;;;;30.12;16.37;;;;;;;21.01;48.30;100413.19;4403251;32;20119;-67
2021/09/17 06:17:07;;;;;;;28.17;14.93;;;;;;;21.18;48.14;100408.25;4403632;32;20054;-67
2021/09/17 06:19:33;;;;;;;19.55;11.57;;;;;;;21.38;47.91;100412.91;4404871;32;20478;-67
2021/09/17 06:21:59;;;;;;;20.98;11.52;;;;;;;21.55;47.12;100416.56;4402137;32;20101;-67
2021/09/17 06:24:24;;;;;;;33.20;12.70;;;;;;;21.70;46.92;100411.34;4403732;32;20034;-67
2021/09/17 06:26:50;;;;;;;28.00;13.75;;;;;;;21.85;46.65;100413.94;4398091;32;20394;-67
2021/09/17 06:29:16;;;;;;;30.73;14.48;;;;;;;21.91;46.56;100414.72;4401299;32;20038;-69
2021/09/17 06:31:42;;;;;;;27.40;13.95;;;;;;;21.97;46.48;100409.75;4399130;32;20503;-67
2021/09/17 06:34:08;;;;;;;27.58;13.27;;;;;;;22.06;46.13;100407.34;4401174;32;20051;-67
2021/09/17 06:36:34;;;;;;;31.12;14.20;;;;;;;22.19;46.00;100421.94;4401009;32;20116;-67
2021/09/17 06:39:01;;;;;;;36.17;17.10;;;;;;;22.39;45.50;100412.19;4396381;32;20103;-67
2021/09/17 06:41:27;;;;;;;37.65;16.73;;;;;;;22.45;45.20;100419.47;4394220;32;20108;-67
2021/09/17 06:43:53;;;;;;;30.88;15.35;;;;;;;22.66;45.19;100406.34;4396207;32;20074;-67
2021/09/17 06:46:19;;;;;;;26.33;12.07;;;;;;;22.73;45.19;100416.50;4401768;32;20046;-67
2021/09/17 06:48:45;;;;;;;27.65;11.70;;;;;;;22.61;45.59;100421.50;4392863;32;20127;-67
2021/09/17 06:51:11;;;;;;;20.08;10.38;;;;;;;22.81;45.30;100418.25;4386704;32;20166;-67
2021/09/17 06:53:37;;;;;;;17.80;9.57;;;;;;;22.79;45.42;100422.94;4393510;32;20553;-67
2021/09/17 06:56:03;;;;;;;17.15;9.77;;;;;;;22.64;45.81;100426.16;4393862;32;20081;-68
2021/09/17 06:58:31;;;;;;;22.30;9.98;;;;;;;22.96;45.28;100412.94;4393882;32;20691;-67
2021/09/17 07:01:01;;;;;;;18.75;9.77;;;;;;;22.68;45.63;100414.41;4391430;32;20074;-67
2021/09/17 07:03:27;;;;;;;15.55;8.30;;;;;;;23.10;44.88;100413.91;4388492;32;20162;-67
2021/09/17 07:05:54;;;;;;;17.98;8.65;;;;;;;23.17;44.62;100421.94;4390152;32;20077;-68
2021/09/17 07:08:20;;;;;;;17.37;8.52;;;;;;;23.47;44.32;100425.59;4386652;32;20615;-68
2021/09/17 07:10:46;;;;;;;19.67;8.80;;;;;;;23.53;43.94;100430.00;4392996;32;20069;-68
2021/09/17 07:13:12;;;;;;;10.32;6.95;;;;;;;23.84;43.47;100422.88;4395299;32;20427;-68
2021/09/17 07:15:40;;;;;;;15.25;6.62;;;;;;;23.92;43.04;100418.12;4388998;32;20081;-69
2021/09/17 07:18:07;;;;;;;12.10;6.32;;;;;;;24.11;42.79;100426.84;4390849;32;20074;-69
2021/09/17 07:20:34;;;;;;;12.18;6.72;;;;;;;24.15;42.83;100428.09;4395885;32;20085;-69
2021/09/17 07:23:00;;;;;;;14.40;6.32;;;;;;;24.34;42.64;100425.25;4395003;32;20129;-68
2021/09/17 07:25:26;;;;;;;13.10;5.78;;;;;;;23.96;42.67;100426.47;4393122;32;20078;-67
2021/09/17 07:27:52;;;;;;;11.68;4.72;;;;;;;24.11;42.86;100423.97;4396022;32;20611;-69
2021/09/17 07:30:19;;;;;;;12.02;4.87;;;;;;;24.00;42.83;100424.88;4396596;32;20572;-69
2021/09/17 07:32:45;;;;;;;11.10;5.65;;;;;;;23.83;43.27;100424.22;4397934;32;20185;-69
2021/09/17 07:35:11;;;;;;;9.40;5.20;;;;;;;24.00;43.11;100415.44;4397452;32;20544;-69
2021/09/17 07:37:37;;;;;;;12.52;5.32;;;;;;;24.08;42.93;100425.81;4394927;32;20077;-69
2021/09/17 07:40:04;;;;;;;11.07;4.90;;;;;;;24.11;42.83;100424.72;4388718;32;20437;-70
2021/09/17 07:42:30;;;;;;;13.35;5.55;;;;;;;24.21;42.34;100425.91;4394221;32;20077;-69
2021/09/17 07:44:56;;;;;;;11.65;5.45;;;;;;;24.41;42.16;100419.66;4397814;32;20070;-69
2021/09/17 07:47:21;;;;;;;9.10;4.47;;;;;;;24.52;42.09;100419.53;4396376;32;20093;-69
2021/09/17 07:49:47;;;;;;;10.38;5.20;;;;;;;24.37;41.86;100418.41;4399606;32;20077;-70
2021/09/17 07:52:13;;;;;;;8.88;5.30;;;;;;;24.64;41.58;100423.03;4396751;32;20546;-69
2021/09/17 07:54:38;;;;;;;6.80;4.65;;;;;;;24.59;41.71;100424.66;4396726;32;20133;-71
2021/09/17 07:57:05;;;;;;;9.63;5.32;;;;;;;24.50;41.79;100427.91;4397905;32;20152;-70
2021/09/17 07:59:30;;;;;;;8.93;4.40;;;;;;;24.60;41.71;100425.41;4396467;32;20042;-70
2021/09/17 08:01:58;;;;;;;9.27;4.75;;;;;;;24.91;41.20;100439.94;4399090;32;20085;-71
2021/09/17 08:04:24;;;;;;;8.63;4.45;;;;;;;24.84;41.37;100437.69;4396697;32;20153;-71
2021/09/17 08:06:50;;;;;;;8.48;4.32;;;;;;;25.02;40.97;100436.09;4398161;32;20077;-69
2021/09/17 08:09:15;;;;;;;11.35;4.90;;;;;;;25.04;41.04;100434.22;4396100;32;20077;-68
2021/09/17 08:11:43;;;;;;;9.20;4.40;;;;;;;25.31;40.41;100427.28;4392622;32;20148;-68
2021/09/17 08:14:09;;;;;;;9.65;4.60;;;;;;;25.46;40.10;100437.56;4394342;32;20417;-68
2021/09/17 08:16:35;;;;;;;10.32;5.10;;;;;;;25.59;39.80;100434.69;4390191;32;20108;-69
2021/09/17 08:19:01;;;;;;;9.68;5.12;;;;;;;25.39;39.95;100433.19;4393978;32;20339;-68
2021/09/17 08:21:27;;;;;;;15.75;5.20;;;;;;;25.29;40.23;100438.56;4396051;32;20071;-68
2021/09/17 08:23:53;;;;;;;9.57;4.90;;;;;;;24.74;41.18;100442.28;4400109;32;20070;-68
2021/09/17 08:26:19;;;;;;;11.00;5.40;;;;;;;24.94;40.98;100447.47;4397104;32;20054;-68
2021/09/17 08:28:45;;;;;;;12.48;6.05;;;;;;;24.78;41.46;100456.34;4394169;32;20073;-68
2021/09/17 08:31:11;;;;;;;10.93;5.18;;;;;;;24.91;41.44;100457.19;4398335;32;20157;-68
2021/09/17 08:33:37;;;;;;;13.98;5.25;;;;;;;24.92;41.59;100452.22;4395676;32;20069;-69
2021/09/17 08:36:04;;;;;;;15.18;4.47;;;;;;;25.14;40.92;100457.66;4396626;32;20471;-69
2021/09/17 08:38:29;;;;;;;9.40;5.32;;;;;;;25.04;41.19;100465.16;4395783;32;20464;-68
2021/09/17 08:40:57;;;;;;;9.98;5.15;;;;;;;25.42;40.59;100465.88;4394905;32;20080;-68
2021/09/17 08:43:25;;;;;;;12.75;6.12;;;;;;;25.50;40.55;100452.41;4394058;32;20206;-68
2021/09/17 08:45:53;;;;;;;13.73;5.12;;;;;;;25.78;40.03;100456.38;4394198;32;20140;-68
2021/09/17 08:48:26;;;;;;;12.18;6.28;;;;;;;25.99;39.29;100462.31;4389864;32;20216;-68
2021/09/17 08:50:53;;;;;;;10.23;5.65;;;;;;;25.67;39.90;100468.09;4389919;32;20042;-68
2021/09/17 08:53:19;;;;;;;14.25;6.05;;;;;;;25.43;40.19;100455.94;4394803;32;20157;-68
2021/09/17 08:55:49;;;;;;;12.85;6.00;;;;;;;25.54;39.95;100459.41;4399020;32;20089;-68
2021/09/17 08:58:15;;;;;;;15.07;5.60;;;;;;;26.11;38.84;100452.12;4391064;32;20467;-68
2021/09/17 09:00:43;;;;;;;9.68;5.32;;;;;;;26.17;38.81;100455.69;4394935;32;20143;-71
2021/09/17 09:03:10;;;;;;;10.02;5.43;;;;;;;26.37;38.49;100452.12;4397098;32;20101;-71
2021/09/17 09:05:39;;;;;;;11.63;4.87;;;;;;;26.62;37.69;100451.34;4392780;32;20512;-71
2021/09/17 09:08:06;;;;;;;11.30;5.62;;;;;;;26.68;37.67;100448.34;4391524;32;20414;-70
2021/09/17 09:10:33;;;;;;;11.12;5.45;;;;;;;27.00;37.08;100446.06;4394547;32;20128;-69
2021/09/17 09:13:03;;;;;;;10.00;4.87;;;;;;;27.40;36.27;100456.16;4397077;32;20097;-68
2021/09/17 09:15:32;;;;;;;10.50;4.82;;;;;;;27.44;36.23;100464.47;4397017;32;20046;-69
2021/09/17 09:18:10;;;;;;;10.10;4.65;;;;;;;27.26;36.49;100453.87;4395347;32;20077;-69
2021/09/17 09:20:39;;;;;;;9.23;4.90;;;;;;;27.74;35.71;100456.06;4394111;32;21272;-69
2021/09/17 09:23:22;;;;;;;11.05;4.80;;;;;;;27.95;35.55;100451.09;4392268;32;20334;-69
2021/09/17 09:26:08;;;;;;;6.55;4.55;;;;;;;27.36;35.88;100458.59;4386178;32;20091;-68
2021/09/17 09:28:44;;;;;;;8.18;4.62;;;;;;;27.18;36.42;100447.97;4397341;32;20078;-68
2021/09/17 09:31:14;;;;;;;7.75;4.80;;;;;;;27.11;36.89;100455.22;4393385;32;20046;-68
2021/09/17 09:33:42;;;;;;;8.15;5.05;;;;;;;26.49;37.99;100470.75;4392094;32;20125;-68
2021/09/17 09:36:11;;;;;;;13.30;5.07;;;;;;;26.41;38.35;100453.34;4397102;32;20091;-69
2021/09/17 09:46:42;;;;;;;8.25;4.18;;;;;;;27.62;37.18;100449.81;3948851;32;15025241;-68
2021/09/17 09:52:06;;;;;;;14.20;5.75;;;;;;;27.27;37.64;100453.31;3944854;32;15722643;-69
2021/09/17 09:54:35;;;;;;;10.30;6.32;;;;;;;27.27;37.64;100453.31;4423421;32;20089;-69
2021/09/17 09:57:04;;;;;;;11.73;5.45;;;;;;;27.21;37.90;100453.41;4412528;32;20107;-69
2021/09/17 09:59:32;;;;;;;14.23;4.72;;;;;;;27.53;37.35;100450.31;4421676;32;20077;-69
2021/09/17 10:02:00;;;;;;;8.75;4.43;;;;;;;27.65;37.09;100450.78;4419972;32;20070;-67
2021/09/17 10:04:28;;;;;;;13.23;5.03;;;;;;;27.63;36.97;100447.69;4416442;32;21038;-69
2021/09/17 10:09:38;;;;;;;6.28;3.78;;;;;;;28.46;35.39;100452.81;3958381;32;15025444;-69
2021/09/17 10:12:07;;;;;;;8.20;2.97;;;;;;;28.46;35.39;100452.81;4409479;32;20121;-69
2021/09/17 10:14:34;;;;;;;5.25;3.28;;;;;;;27.51;36.53;100444.31;4409414;32;20078;-71
2021/09/17 10:17:08;;;;;;;6.18;3.75;;;;;;;27.96;35.75;100444.72;4409577;32;20061;-71
2021/09/17 10:19:36;;;;;;;9.20;4.22;;;;;;;28.63;34.81;100438.59;4411413;32;20050;-70
2021/09/17 10:22:04;;;;;;;12.48;4.50;;;;;;;28.40;35.09;100446.38;4408965;32;20127;-71
2021/09/17 10:24:37;;;;;;;9.23;4.47;;;;;;;28.32;35.25;100436.09;4409104;32;20142;-69
2021/09/17 10:29:42;;;;;;;10.43;4.47;;;;;;;28.88;35.18;100448.38;3941066;32;15014404;-72
2021/09/17 10:32:35;;;;;;;18.83;4.70;;;;;;;28.88;35.18;100448.38;4381817;32;20166;-72
2021/09/17 10:45:52;;;;;;;13.52;4.62;;;;;;;27.99;36.37;100454.37;3974839;32;15023397;-72
2021/09/17 10:48:23;;;;;;;13.25;5.40;;;;;;;27.99;36.37;100454.37;4420131;32;20061;-70
2021/09/17 10:56:16;;;;;;;7.80;3.58;;;;;;;27.29;37.63;100444.84;3975330;32;15026796;-69
2021/09/17 10:58:43;;;;;;;11.25;4.72;;;;;;;27.29;37.63;100444.84;4427055;32;20073;-68
2021/09/17 11:01:12;;;;;;;8.55;4.15;;;;;;;27.03;38.18;100442.03;4427901;32;20145;-70
2021/09/17 11:09:06;;;;;;;18.27;3.72;;;;;;;27.99;36.30;100460.97;3986643;31;15016260;-70
2021/09/17 11:11:53;;;;;;;8.88;3.90;;;;;;;27.99;36.30;100460.97;4418905;32;20144;-68
2021/09/17 11:14:21;;;;;;;7.53;4.05;;;;;;;27.26;37.42;100451.75;4435581;32;20406;-69
2021/09/17 11:16:49;;;;;;;14.30;4.00;;;;;;;26.56;38.71;100455.66;4434166;32;20623;-69
2021/09/17 11:19:17;;;;;;;9.00;3.40;;;;;;;26.84;37.95;100455.84;4430072;32;20081;-69
2021/09/17 11:21:47;;;;;;;9.02;3.53;;;;;;;27.61;36.57;100451.13;4434749;32;20052;-69
2021/09/17 11:26:54;;;;;;;12.05;2.97;;;;;;;28.57;34.37;100446.72;3973926;32;15031482;-70
2021/09/17 11:29:22;;;;;;;8.27;3.28;;;;;;;28.05;34.72;100452.91;4430377;32;20478;-70
2021/09/17 11:31:51;;;;;;;7.20;3.15;;;;;;;28.59;34.10;100452.69;4433382;32;20104;-69
2021/09/17 11:34:20;;;;;;;9.63;3.50;;;;;;;28.89;33.72;100452.81;4435615;32;20516;-70
2021/09/17 11:37:03;;;;;;;8.85;3.22;;;;;;;28.85;33.83;100455.34;4433906;32;20110;-69
2021/09/17 11:42:13;;;;;;;5.43;2.75;;;;;;;28.69;34.12;100447.91;3927958;32;15014131;-70
2021/09/17 11:44:44;;;;;;;7.53;2.97;;;;;;;28.69;34.12;100447.91;4383275;32;20078;-70
2021/09/17 11:47:14;;;;;;;10.65;3.47;;;;;;;28.67;33.87;100441.94;4380001;32;20473;-70
2021/09/17 11:49:43;;;;;;;5.87;3.30;;;;;;;29.13;33.39;100433.41;4378874;32;20129;-70
2021/09/17 11:52:11;;;;;;;7.12;3.55;;;;;;;28.55;34.03;100437.81;4379814;32;20617;-69
2021/09/17 11:54:37;;;;;;;7.03;3.67;;;;;;;28.86;33.49;100438.72;4379097;32;20115;-70
2021/09/17 11:57:12;;;;;;;9.30;3.85;;;;;;;29.19;32.96;100426.09;4378573;32;20072;-70
2021/09/17 11:59:39;;;;;;;;;;;;;;;29.28;32.84;100427.66;4377373;32;20116;-69